createdAt,value
2023-05-08T00:00:10.806Z,100229.34
2023-05-08T00:02:40.775Z,100222.88
2023-05-08T00:05:07.991Z,100225.69
2023-05-08T00:07:36.737Z,100235.28
2023-05-08T00:10:04.773Z,100231.78
2023-05-08T00:12:31.456Z,100230.31
2023-05-08T00:14:58.147Z,100223.22
2023-05-08T00:17:25.204Z,100233.25
2023-05-08T00:19:53.007Z,100224.78
2023-05-08T00:22:19.935Z,100220.03
2023-05-08T00:24:46.621Z,100216.53
2023-05-08T00:27:13.474Z,100219.56
2023-05-08T00:29:43.255Z,100219.78
2023-05-08T00:32:10.152Z,100230.28
2023-05-08T00:34:36.975Z,100219.69
2023-05-08T00:37:03.760Z,100219.09
2023-05-08T00:39:31.583Z,100215.25
2023-05-08T00:41:58.445Z,100216.03
2023-05-08T00:44:25.723Z,100219.44
2023-05-08T00:46:52.561Z,100216.91
2023-05-08T00:49:19.596Z,100219.72
2023-05-08T00:55:06.876Z,100222.28
2023-05-08T00:57:37.919Z,100224.75
2023-05-08T01:00:05.866Z,100221.81
2023-05-08T01:02:32.973Z,100227.66
2023-05-08T01:05:00.164Z,100222.56
2023-05-08T01:07:27.902Z,100220.75
2023-05-08T01:09:54.683Z,100219.16
2023-05-08T01:12:34.705Z,100217.22
2023-05-08T01:15:12.401Z,100218.69
2023-05-08T01:17:51.621Z,100222.44
2023-05-08T01:20:23.881Z,100224.53
2023-05-08T01:22:59.156Z,100224.75
2023-05-08T01:26:01.532Z,100223.97
2023-05-08T01:28:37.566Z,100223.53
2023-05-08T01:31:38.662Z,100222.31
2023-05-08T01:34:10.585Z,100226.63
2023-05-08T01:36:45.486Z,100236.22
2023-05-08T01:39:20.305Z,100237.78
2023-05-08T01:41:56.318Z,100244.69
2023-05-08T01:44:29.802Z,100247.38
2023-05-08T01:46:57.152Z,100252.19
2023-05-08T01:49:27.508Z,100246.22
2023-05-08T01:52:03.082Z,100242.69
2023-05-08T01:54:36.326Z,100244.63
2023-05-08T01:57:04.297Z,100243.84
2023-05-08T01:59:33.897Z,100244.63
2023-05-08T02:02:02.495Z,100241.09
2023-05-08T02:04:30.734Z,100241.91
2023-05-08T02:06:58.779Z,100249.53
2023-05-08T02:09:28.421Z,100242.25
2023-05-08T02:11:55.582Z,100242.41
2023-05-08T02:14:23.814Z,100237.78
2023-05-08T02:16:54.728Z,100238.22
2023-05-08T02:19:25.747Z,100242.41
2023-05-08T02:21:54.310Z,100243.41
2023-05-08T02:24:22.304Z,100238.22
2023-05-08T02:26:50.415Z,100240.47
2023-05-08T02:29:17.642Z,100241.06
2023-05-08T02:31:45.670Z,100242.66
2023-05-08T02:34:12.740Z,100251.28
2023-05-08T02:36:40.889Z,100242.00
2023-05-08T02:39:11.171Z,100237.88
2023-05-08T02:41:40.646Z,100236.44
2023-05-08T02:44:08.332Z,100241.63
2023-05-08T02:46:44.116Z,100236.59
2023-05-08T02:49:37.461Z,100240.63
2023-05-08T02:52:08.048Z,100242.25
2023-05-08T02:54:39.880Z,100238.88
2023-05-08T02:57:34.579Z,100237.09
2023-05-08T03:00:07.726Z,100235.94
2023-05-08T03:02:42.272Z,100240.97
2023-05-08T03:05:18.047Z,100240.16
2023-05-08T03:07:50.070Z,100249.34
2023-05-08T03:10:19.743Z,100252.78
2023-05-08T03:12:49.777Z,100256.44
2023-05-08T03:15:26.959Z,100255.13
2023-05-08T03:17:57.260Z,100260.34
2023-05-08T03:20:26.344Z,100257.53
2023-05-08T03:22:55.493Z,100252.00
2023-05-08T03:25:23.444Z,100243.66
2023-05-08T03:27:52.051Z,100251.78
2023-05-08T03:30:20.786Z,100248.41
2023-05-08T03:32:58.854Z,100243.66
2023-05-08T03:35:27.169Z,100253.38
2023-05-08T03:37:54.560Z,100251.53
2023-05-08T03:40:21.776Z,100250.09
2023-05-08T03:42:49.634Z,100253.28
2023-05-08T03:45:18.159Z,100251.47
2023-05-08T03:47:45.385Z,100254.22
2023-05-08T03:50:12.369Z,100256.66
2023-05-08T03:52:39.642Z,100257.03
2023-05-08T03:55:06.859Z,100256.06
2023-05-08T03:57:57.809Z,100263.19
2023-05-08T04:00:52.779Z,100264.56
2023-05-08T04:03:43.987Z,100257.69
2023-05-08T04:06:17.209Z,100258.50
2023-05-08T04:09:02.665Z,100269.44
2023-05-08T04:11:36.763Z,100270.78
2023-05-08T04:14:10.263Z,100264.41
2023-05-08T04:16:48.168Z,100266.13
2023-05-08T04:19:20.784Z,100264.81
2023-05-08T04:21:50.162Z,100265.34
2023-05-08T04:24:18.323Z,100267.72
2023-05-08T04:26:46.243Z,100266.13
2023-05-08T04:29:14.273Z,100273.03
2023-05-08T04:31:42.303Z,100272.19
2023-05-08T04:34:09.857Z,100275.50
2023-05-08T04:36:37.606Z,100277.06
2023-05-08T04:39:05.794Z,100276.00
2023-05-08T04:41:33.063Z,100283.13
2023-05-08T04:43:59.932Z,100290.19
2023-05-08T04:46:26.635Z,100290.47
2023-05-08T04:48:54.393Z,100295.91
2023-05-08T04:51:21.010Z,100296.50
2023-05-08T04:53:47.888Z,100298.56
2023-05-08T04:56:15.415Z,100299.63
2023-05-08T04:58:42.173Z,100300.69
2023-05-08T05:01:09.812Z,100300.19
2023-05-08T05:03:36.745Z,100305.06
2023-05-08T05:06:03.461Z,100302.16
2023-05-08T05:08:30.365Z,100301.38
2023-05-08T05:10:58.460Z,100296.44
2023-05-08T05:13:25.330Z,100299.50
2023-05-08T05:15:54.378Z,100294.31
2023-05-08T05:18:21.829Z,100302.59
2023-05-08T05:20:49.852Z,100301.47
2023-05-08T05:23:16.607Z,100306.34
2023-05-08T05:25:43.384Z,100309.38
2023-05-08T05:28:10.078Z,100306.81
2023-05-08T05:30:36.750Z,100305.69
2023-05-08T05:33:03.826Z,100310.28
2023-05-08T05:35:31.259Z,100314.13
2023-05-08T05:37:57.852Z,100316.69
2023-05-08T05:40:24.688Z,100306.28
2023-05-08T05:42:52.994Z,100311.25
2023-05-08T05:45:20.435Z,100319.47
2023-05-08T05:47:53.859Z,100313.13
2023-05-08T05:50:22.726Z,100316.94
2023-05-08T05:52:50.155Z,100314.44
2023-05-08T05:55:17.150Z,100317.66
2023-05-08T05:57:46.378Z,100314.38
2023-05-08T06:00:13.492Z,100319.66
2023-05-08T06:02:46.803Z,100323.97
2023-05-08T06:05:15.746Z,100311.28
2023-05-08T06:07:42.283Z,100323.44
2023-05-08T06:10:09.243Z,100316.91
2023-05-08T06:12:35.938Z,100321.19
2023-05-08T06:15:03.521Z,100312.75
2023-05-08T06:17:31.773Z,100318.81
2023-05-08T06:19:58.493Z,100316.44
2023-05-08T06:22:25.747Z,100328.06
2023-05-08T06:24:55.683Z,100323.47
2023-05-08T06:27:22.592Z,100324.56
2023-05-08T06:29:52.932Z,100317.94
2023-05-08T06:32:21.226Z,100322.50
2023-05-08T06:34:48.613Z,100318.25
2023-05-08T06:37:15.494Z,100312.66
2023-05-08T06:39:42.065Z,100316.41
2023-05-08T06:42:09.093Z,100318.19
2023-05-08T06:44:40.834Z,100324.63
2023-05-08T06:47:08.427Z,100322.25
2023-05-08T06:49:38.451Z,100328.63
2023-05-08T06:52:05.159Z,100319.47
2023-05-08T06:54:31.798Z,100316.78
2023-05-08T06:56:58.415Z,100315.69
2023-05-08T06:59:25.068Z,100315.06
2023-05-08T07:01:51.677Z,100320.56
2023-05-08T07:04:18.511Z,100318.59
2023-05-08T07:06:45.131Z,100314.75
2023-05-08T07:09:12.068Z,100320.69
2023-05-08T07:11:38.802Z,100319.75
2023-05-08T07:14:05.355Z,100316.63
2023-05-08T07:16:32.603Z,100323.50
2023-05-08T07:18:59.360Z,100317.28
2023-05-08T07:21:26.329Z,100321.97
2023-05-08T07:23:53.824Z,100311.25
2023-05-08T07:26:21.683Z,100323.03
2023-05-08T07:28:48.860Z,100313.97
2023-05-08T07:31:15.623Z,100325.06
2023-05-08T07:33:42.905Z,100322.00
2023-05-08T07:36:09.534Z,100319.69
2023-05-08T07:38:36.689Z,100311.63
2023-05-08T07:41:05.188Z,100318.25
2023-05-08T07:43:32.096Z,100317.53
2023-05-08T07:45:59.078Z,100320.47
2023-05-08T07:48:25.927Z,100322.63
2023-05-08T07:50:52.586Z,100318.41
2023-05-08T07:53:19.180Z,100315.03
2023-05-08T07:55:45.744Z,100320.28
2023-05-08T07:58:12.306Z,100314.22
2023-05-08T08:00:39.668Z,100313.72
2023-05-08T08:03:07.210Z,100312.75
2023-05-08T08:05:33.912Z,100315.41
2023-05-08T08:08:00.478Z,100314.66
2023-05-08T08:10:27.544Z,100317.53
2023-05-08T08:12:54.426Z,100312.03
2023-05-08T08:15:21.025Z,100308.66
2023-05-08T08:17:47.594Z,100312.56
2023-05-08T08:20:14.545Z,100307.81
2023-05-08T08:22:41.230Z,100314.34
2023-05-08T08:25:08.546Z,100305.16
2023-05-08T08:27:35.530Z,100303.00
2023-05-08T08:30:16.319Z,100303.69
2023-05-08T08:32:44.214Z,100302.28
2023-05-08T08:35:11.289Z,100302.72
2023-05-08T08:37:38.162Z,100303.13
2023-05-08T08:40:05.593Z,100306.38
2023-05-08T08:42:32.233Z,100303.41
2023-05-08T08:44:58.849Z,100305.44
2023-05-08T08:47:29.492Z,100304.09
2023-05-08T08:49:58.133Z,100298.97
2023-05-08T08:52:37.684Z,100304.16
2023-05-08T08:55:08.443Z,100307.44
2023-05-08T08:57:37.112Z,100307.47
2023-05-08T09:00:05.378Z,100303.75
2023-05-08T09:02:32.314Z,100308.06
2023-05-08T09:04:59.465Z,100301.13
2023-05-08T09:07:26.836Z,100300.78
2023-05-08T09:09:54.325Z,100298.94
2023-05-08T09:12:21.023Z,100298.94
2023-05-08T09:14:47.920Z,100292.38
2023-05-08T09:17:14.518Z,100289.59
2023-05-08T09:19:42.142Z,100289.56
2023-05-08T09:22:10.633Z,100297.09
2023-05-08T09:24:58.820Z,100286.50
2023-05-08T09:27:27.501Z,100291.72
2023-05-08T09:30:05.114Z,100293.91
2023-05-08T09:32:35.964Z,100289.00
2023-05-08T09:35:03.494Z,100285.81
2023-05-08T09:37:30.404Z,100286.19
2023-05-08T09:40:21.157Z,100275.78
2023-05-08T09:42:49.968Z,100274.69
2023-05-08T09:45:28.201Z,100277.03
2023-05-08T09:47:55.247Z,100272.78
2023-05-08T09:50:21.944Z,100273.47
2023-05-08T09:52:49.495Z,100274.41
2023-05-08T09:55:16.772Z,100278.72
2023-05-08T09:57:57.871Z,100276.66
2023-05-08T10:00:29.362Z,100273.44
2023-05-08T10:03:02.800Z,100274.25
2023-05-08T10:05:35.668Z,100273.34
2023-05-08T10:08:23.022Z,100274.97
2023-05-08T10:10:49.890Z,100281.50
2023-05-08T10:13:16.696Z,100273.38
2023-05-08T10:15:44.671Z,100272.00
2023-05-08T10:18:12.317Z,100266.72
2023-05-08T10:20:42.290Z,100271.31
2023-05-08T10:23:14.437Z,100259.56
2023-05-08T10:25:54.143Z,100272.91
2023-05-08T10:28:40.845Z,100259.91
2023-05-08T10:31:08.283Z,100268.06
2023-05-08T10:33:37.723Z,100253.19
2023-05-08T10:36:05.546Z,100266.19
2023-05-08T10:38:33.078Z,100257.69
2023-05-08T10:41:02.969Z,100253.66
2023-05-08T10:43:33.599Z,100253.25
2023-05-08T10:46:08.758Z,100243.88
2023-05-08T10:49:05.397Z,100234.88
2023-05-08T10:52:05.649Z,100243.72
2023-05-08T10:54:53.735Z,100240.22
2023-05-08T10:57:20.338Z,100246.03
2023-05-08T10:59:47.186Z,100243.13
2023-05-08T11:02:15.670Z,100248.50
2023-05-08T11:04:43.862Z,100234.09
2023-05-08T11:07:12.112Z,100229.94
2023-05-08T11:09:41.471Z,100229.44
2023-05-08T11:12:30.606Z,100229.31
2023-05-08T11:15:04.294Z,100229.59
2023-05-08T11:17:30.988Z,100227.25
2023-05-08T11:20:03.395Z,100230.41
2023-05-08T11:22:34.087Z,100234.22
2023-05-08T11:25:09.756Z,100222.97
2023-05-08T11:27:48.433Z,100218.19
2023-05-08T11:30:25.576Z,100211.94
2023-05-08T11:33:13.483Z,100218.34
2023-05-08T11:35:51.405Z,100220.19
2023-05-08T11:38:23.460Z,100219.50
2023-05-08T11:41:00.439Z,100216.78
2023-05-08T11:43:33.830Z,100208.44
2023-05-08T11:46:05.802Z,100216.88
2023-05-08T11:48:33.260Z,100206.28
2023-05-08T11:51:00.438Z,100199.09
2023-05-08T11:53:28.320Z,100205.09
2023-05-08T11:55:55.728Z,100211.22
2023-05-08T11:58:22.499Z,100215.75
2023-05-08T12:00:49.779Z,100208.72
2023-05-08T12:03:19.159Z,100208.13
2023-05-08T12:05:46.830Z,100210.34
2023-05-08T12:08:14.770Z,100216.94
2023-05-08T12:10:53.161Z,100202.91
2023-05-08T12:13:30.082Z,100201.47
2023-05-08T12:16:00.959Z,100196.25
2023-05-08T12:18:29.393Z,100202.09
2023-05-08T12:21:00.752Z,100202.84
2023-05-08T12:23:29.679Z,100207.75
2023-05-08T12:26:00.572Z,100194.78
2023-05-08T12:28:27.413Z,100191.53
2023-05-08T12:30:54.467Z,100190.03
2023-05-08T12:33:21.735Z,100188.88
2023-05-08T12:35:48.649Z,100186.78
2023-05-08T12:38:15.280Z,100186.56
2023-05-08T12:40:46.521Z,100188.41
2023-05-08T12:43:13.462Z,100194.63
2023-05-08T12:45:42.405Z,100192.75
2023-05-08T12:48:13.755Z,100196.94
2023-05-08T12:50:42.208Z,100191.63
2023-05-08T12:53:17.085Z,100188.41
2023-05-08T12:55:58.229Z,100180.38
2023-05-08T12:58:29.920Z,100185.75
2023-05-08T13:01:11.919Z,100193.88
2023-05-08T13:03:40.650Z,100184.69
2023-05-08T13:06:18.580Z,100183.16
2023-05-08T13:08:45.176Z,100175.97
2023-05-08T13:11:11.844Z,100173.75
2023-05-08T13:13:38.407Z,100181.25
2023-05-08T13:16:06.920Z,100180.22
2023-05-08T13:18:36.162Z,100189.91
2023-05-08T13:21:03.613Z,100180.28
2023-05-08T13:23:30.529Z,100185.78
2023-05-08T13:25:57.236Z,100165.53
2023-05-08T13:28:23.911Z,100162.84
2023-05-08T13:30:50.727Z,100161.78
2023-05-08T13:33:17.293Z,100167.63
2023-05-08T13:35:44.030Z,100159.09
2023-05-08T13:38:10.615Z,100160.25
2023-05-08T13:40:37.592Z,100151.81
2023-05-08T13:43:04.312Z,100147.75
2023-05-08T13:45:32.352Z,100154.66
2023-05-08T13:48:00.288Z,100149.69
2023-05-08T13:50:27.007Z,100141.28
2023-05-08T13:52:54.997Z,100149.34
2023-05-08T13:55:23.300Z,100146.75
2023-05-08T13:57:50.456Z,100146.19
2023-05-08T14:00:17.356Z,100146.22
2023-05-08T14:02:44.123Z,100141.94
2023-05-08T14:05:11.054Z,100132.81
2023-05-08T14:07:37.915Z,100139.19
2023-05-08T14:10:04.997Z,100137.63
2023-05-08T14:12:36.003Z,100139.88
2023-05-08T14:15:06.225Z,100138.56
2023-05-08T14:17:32.906Z,100136.78
2023-05-08T14:19:59.636Z,100138.91
2023-05-08T14:22:26.276Z,100135.75
2023-05-08T14:24:53.137Z,100136.72
2023-05-08T14:27:19.969Z,100138.75
2023-05-08T14:29:46.621Z,100136.91
2023-05-08T14:32:13.331Z,100131.06
2023-05-08T14:34:40.006Z,100127.09
2023-05-08T14:37:06.615Z,100115.94
2023-05-08T14:39:33.229Z,100107.63
2023-05-08T14:42:21.522Z,100117.34
2023-05-08T14:44:49.787Z,100119.56
2023-05-08T14:47:17.666Z,100107.63
2023-05-08T14:49:44.688Z,100116.59
2023-05-08T14:52:11.295Z,100114.59
2023-05-08T14:54:38.121Z,100114.66
2023-05-08T14:57:04.818Z,100116.25
2023-05-08T14:59:31.666Z,100116.38
2023-05-08T15:01:58.293Z,100115.00
2023-05-08T15:04:26.718Z,100113.78
2023-05-08T15:06:53.295Z,100113.78
2023-05-08T15:09:19.879Z,100104.28
2023-05-08T15:11:46.498Z,100107.06
2023-05-08T15:14:13.127Z,100106.75
2023-05-08T15:16:39.815Z,100099.41
2023-05-08T15:19:06.471Z,100102.84
2023-05-08T15:21:33.041Z,100097.25
2023-05-08T15:23:59.748Z,100103.63
2023-05-08T15:26:26.690Z,100091.94
2023-05-08T15:28:53.277Z,100093.97
2023-05-08T15:31:21.066Z,100095.06
2023-05-08T15:33:48.247Z,100092.56
2023-05-08T15:36:15.635Z,100093.84
2023-05-08T15:38:42.808Z,100101.72
2023-05-08T15:41:14.723Z,100101.84
2023-05-08T15:43:42.239Z,100101.03
2023-05-08T15:46:08.971Z,100100.88
2023-05-08T15:48:35.622Z,100094.66
2023-05-08T15:51:02.301Z,100108.75
2023-05-08T15:53:28.978Z,100099.50
2023-05-08T15:55:56.881Z,100101.44
2023-05-08T15:58:23.643Z,100092.56
2023-05-08T16:00:50.776Z,100090.41
2023-05-08T16:03:17.857Z,100085.28
2023-05-08T16:05:44.745Z,100083.72
2023-05-08T16:08:12.862Z,100086.38
2023-05-08T16:10:41.784Z,100079.06
2023-05-08T16:13:08.772Z,100080.00
2023-05-08T16:15:35.416Z,100077.84
2023-05-08T16:18:02.838Z,100077.84
2023-05-08T16:20:29.887Z,100079.06
2023-05-08T16:22:56.606Z,100086.81
2023-05-08T16:25:23.602Z,100077.41
2023-05-08T16:27:50.425Z,100078.47
2023-05-08T16:30:18.069Z,100080.88
2023-05-08T16:32:46.044Z,100073.19
2023-05-08T16:35:14.065Z,100072.69
2023-05-08T16:37:41.113Z,100075.88
2023-05-08T16:40:08.677Z,100075.97
2023-05-08T16:42:36.131Z,100073.75
2023-05-08T16:45:05.149Z,100070.66
2023-05-08T16:47:32.452Z,100070.06
2023-05-08T16:49:59.600Z,100069.97
2023-05-08T16:52:26.371Z,100069.31
2023-05-08T16:54:53.490Z,100076.72
2023-05-08T16:57:20.133Z,100069.88
2023-05-08T16:59:46.760Z,100082.00
2023-05-08T17:02:18.536Z,100073.59
2023-05-08T17:04:47.174Z,100072.88
2023-05-08T17:07:15.054Z,100080.00
2023-05-08T17:09:42.124Z,100071.03
2023-05-08T17:12:09.085Z,100084.50
2023-05-08T17:14:40.611Z,100081.78
2023-05-08T17:17:08.154Z,100073.56
2023-05-08T17:19:34.908Z,100080.69
2023-05-08T17:22:02.152Z,100082.03
2023-05-08T17:24:32.577Z,100082.81
2023-05-08T17:26:59.285Z,100080.16
2023-05-08T17:29:25.966Z,100082.38
2023-05-08T17:31:52.764Z,100092.00
2023-05-08T17:34:21.001Z,100100.09
2023-05-08T17:36:47.591Z,100092.78
2023-05-08T17:39:14.442Z,100099.19
2023-05-08T17:41:41.014Z,100095.97
2023-05-08T17:44:07.546Z,100106.63
2023-05-08T17:46:34.421Z,100108.13
2023-05-08T17:49:01.125Z,100105.28
2023-05-08T17:51:27.714Z,100102.00
2023-05-08T17:53:56.602Z,100106.25
2023-05-08T17:56:23.358Z,100099.06
2023-05-08T17:58:52.563Z,100104.94
2023-05-08T18:01:20.548Z,100105.81
2023-05-08T18:03:48.373Z,100105.59
2023-05-08T18:06:16.556Z,100106.91
2023-05-08T18:08:43.645Z,100113.28
2023-05-08T18:11:17.537Z,100119.75
2023-05-08T18:13:45.256Z,100117.47
2023-05-08T18:16:14.430Z,100117.19
2023-05-08T18:18:41.119Z,100116.25
2023-05-08T18:21:07.903Z,100120.53
2023-05-08T18:23:34.462Z,100118.50
2023-05-08T18:26:01.221Z,100123.22
2023-05-08T18:28:28.174Z,100119.88
2023-05-08T18:30:54.781Z,100119.34
2023-05-08T18:33:21.339Z,100127.03
2023-05-08T18:35:48.134Z,100133.97
2023-05-08T18:38:17.516Z,100131.63
2023-05-08T18:40:45.230Z,100131.13
2023-05-08T18:43:11.933Z,100135.88
2023-05-08T18:45:40.192Z,100134.09
2023-05-08T18:48:08.035Z,100136.47
2023-05-08T18:50:34.639Z,100131.50
2023-05-08T18:53:01.313Z,100131.78
2023-05-08T18:55:27.901Z,100138.91
2023-05-08T18:57:54.865Z,100138.38
2023-05-08T19:00:21.581Z,100141.56
2023-05-08T19:02:49.807Z,100146.06
2023-05-08T19:05:16.499Z,100142.16
2023-05-08T19:07:43.732Z,100154.50
2023-05-08T19:10:10.552Z,100157.66
2023-05-08T19:12:37.237Z,100149.03
2023-05-08T19:15:04.050Z,100153.22
2023-05-08T19:17:30.666Z,100162.38
2023-05-08T19:19:57.256Z,100155.34
2023-05-08T19:22:23.895Z,100154.28
2023-05-08T19:24:50.429Z,100151.94
2023-05-08T19:27:16.989Z,100156.41
2023-05-08T19:29:43.690Z,100157.72
2023-05-08T19:32:10.366Z,100167.91
2023-05-08T19:34:39.309Z,100146.94
2023-05-08T19:37:06.513Z,100156.91
2023-05-08T19:39:33.118Z,100155.63
2023-05-08T19:42:00.173Z,100154.56
2023-05-08T19:44:28.003Z,100155.34
2023-05-08T19:46:54.583Z,100157.72
2023-05-08T19:49:24.443Z,100159.28
2023-05-08T19:51:51.658Z,100159.81
2023-05-08T19:54:18.241Z,100160.59
2023-05-08T19:56:44.878Z,100163.22
2023-05-08T19:59:11.509Z,100170.56
2023-05-08T20:01:38.440Z,100161.66
2023-05-08T20:04:05.399Z,100166.88
2023-05-08T20:06:32.074Z,100167.94
2023-05-08T20:08:58.679Z,100166.34
2023-05-08T20:11:26.021Z,100167.41
2023-05-08T20:13:52.641Z,100172.63
2023-05-08T20:16:20.752Z,100172.34
2023-05-08T20:18:47.441Z,100173.38
2023-05-08T20:21:14.080Z,100175.97
2023-05-08T20:23:41.217Z,100175.44
2023-05-08T20:26:08.498Z,100179.03
2023-05-08T20:28:35.344Z,100175.13
2023-05-08T20:31:02.166Z,100178.25
2023-05-08T20:33:28.850Z,100172.75
2023-05-08T20:35:56.284Z,100170.16
2023-05-08T20:38:22.891Z,100171.97
2023-05-08T20:40:49.496Z,100172.22
2023-05-08T20:43:19.492Z,100178.19
2023-05-08T20:45:46.212Z,100164.28
2023-05-08T20:48:12.889Z,100166.31
2023-05-08T20:50:39.498Z,100167.34
2023-05-08T20:53:06.228Z,100171.53
2023-05-08T20:55:32.857Z,100164.47
2023-05-08T20:57:59.521Z,100167.31
2023-05-08T21:00:26.265Z,100166.78
2023-05-08T21:02:52.900Z,100173.03
2023-05-08T21:05:19.595Z,100171.44
2023-05-08T21:07:46.319Z,100159.94
2023-05-08T21:10:13.271Z,100167.22
2023-05-08T21:12:40.110Z,100156.75
2023-05-08T21:15:07.506Z,100164.56
2023-05-08T21:17:34.178Z,100162.63
2023-05-08T21:20:00.836Z,100158.66
2023-05-08T21:22:27.526Z,100169.66
2023-05-08T21:24:54.143Z,100169.91
2023-05-08T21:27:21.024Z,100165.22
2023-05-08T21:29:47.633Z,100161.03
2023-05-08T21:32:14.233Z,100158.59
2023-05-08T21:34:41.561Z,100158.06
2023-05-08T21:37:08.188Z,100154.09
2023-05-08T21:39:35.453Z,100154.63
2023-05-08T21:42:03.168Z,100144.38
2023-05-08T21:44:29.786Z,100151.88
2023-05-08T21:46:56.388Z,100154.94
2023-05-08T21:49:23.022Z,100154.69
2023-05-08T21:51:49.654Z,100150.72
2023-05-08T21:54:16.216Z,100158.75
2023-05-08T21:56:42.757Z,100154.50
2023-05-08T21:59:09.390Z,100158.16
2023-05-08T22:01:35.985Z,100154.31
2023-05-08T22:04:02.755Z,100155.34
2023-05-08T22:06:29.522Z,100152.97
2023-05-08T22:08:56.208Z,100157.97
2023-05-08T22:11:22.888Z,100154.03
2023-05-08T22:13:49.489Z,100153.13
2023-05-08T22:16:16.235Z,100155.44
2023-05-08T22:18:42.883Z,100156.47
2023-05-08T22:21:09.608Z,100156.19
2023-05-08T22:23:36.278Z,100147.81
2023-05-08T22:26:03.309Z,100143.88
2023-05-08T22:28:29.950Z,100142.25
2023-05-08T22:30:56.558Z,100136.16
2023-05-08T22:33:23.226Z,100139.81
2023-05-08T22:35:49.808Z,100134.34
2023-05-08T22:38:16.655Z,100144.78
2023-05-08T22:40:43.359Z,100138.22
2023-05-08T22:43:10.034Z,100138.47
2023-05-08T22:45:37.113Z,100131.19
2023-05-08T22:48:03.934Z,100126.72
2023-05-08T22:50:30.651Z,100130.91
2023-05-08T22:52:57.241Z,100129.31
2023-05-08T22:55:23.940Z,100134.66
2023-05-08T22:57:50.608Z,100134.38
2023-05-08T23:00:17.440Z,100122.59
2023-05-08T23:02:44.095Z,100132.72
2023-05-08T23:05:10.820Z,100126.44
2023-05-08T23:07:37.397Z,100131.88
2023-05-08T23:10:04.160Z,100131.34
2023-05-08T23:12:30.834Z,100128.75
2023-05-08T23:14:57.552Z,100126.13
2023-05-08T23:17:24.251Z,100124.56
2023-05-08T23:19:51.159Z,100128.94
2023-05-08T23:22:18.070Z,100126.25
2023-05-08T23:24:44.910Z,100121.53
2023-05-08T23:27:12.026Z,100121.00
2023-05-08T23:29:38.628Z,100125.41
2023-05-08T23:32:05.670Z,100122.81
2023-05-08T23:34:32.939Z,100129.88
2023-05-08T23:37:02.214Z,100136.38
2023-05-08T23:39:29.105Z,100123.66
2023-05-08T23:41:55.731Z,100119.72
2023-05-08T23:44:22.445Z,100125.22
2023-05-08T23:46:49.052Z,100113.53
2023-05-08T23:49:15.901Z,100119.00
2023-05-08T23:51:42.475Z,100119.53
2023-05-08T23:54:09.098Z,100109.41
2023-05-08T23:56:35.712Z,100108.13
2023-05-08T23:59:02.334Z,100107.06
